Time;durP1;ratioP1;P1;durP2;ratioP2;P2;SDS_P1;SDS_P2;PMS_P1;PMS_P2;Temp;Humidity;BMP_temperature;BMP_pressure;BME280_temperature;BME280_humidity;BME280_pressure;Samples;Min_cycle;Max_cycle;Signal;HPM_P1;HPM_P2
2023/09/21 00:02:20;;;;;;;5.45;2.22;;;17.50;99.90;;;;;;5033621;28;20110;-70
2023/09/21 00:04:46;;;;;;;6.25;2.65;;;17.50;99.90;;;;;;5017690;28;20052;-70
2023/09/21 00:07:12;;;;;;;8.60;2.70;;;17.50;99.90;;;;;;5030418;28;20044;-70
2023/09/21 00:09:38;;;;;;;8.35;2.65;;;17.50;99.90;;;;;;5016721;28;20041;-70
2023/09/21 00:12:04;;;;;;;5.13;2.33;;;17.60;99.90;;;;;;5020821;28;20037;-70
2023/09/21 00:14:30;;;;;;;5.90;2.25;;;17.60;99.90;;;;;;5031542;28;20449;-70
2023/09/21 00:16:56;;;;;;;7.57;2.95;;;17.60;99.90;;;;;;5013342;28;20050;-70
2023/09/21 00:19:23;;;;;;;6.32;2.63;;;17.50;99.90;;;;;;5014168;28;20068;-70
2023/09/21 00:21:49;;;;;;;6.13;2.88;;;17.60;99.90;;;;;;5020505;28;20091;-70
2023/09/21 00:24:15;;;;;;;8.77;2.47;;;17.60;99.90;;;;;;5016980;28;20450;-70
2023/09/21 00:26:41;;;;;;;5.85;2.35;;;17.50;99.90;;;;;;5003173;28;20092;-71
2023/09/21 00:29:07;;;;;;;5.43;2.47;;;17.50;99.90;;;;;;5007774;28;20386;-70
2023/09/21 00:31:33;;;;;;;6.60;2.30;;;17.50;99.90;;;;;;5017465;28;20123;-70
2023/09/21 00:33:59;;;;;;;7.68;2.60;;;17.50;99.90;;;;;;5051997;28;20424;-70
2023/09/21 00:36:24;;;;;;;5.90;2.60;;;17.50;99.90;;;;;;5016777;28;20049;-70
2023/09/21 00:38:52;;;;;;;6.97;2.25;;;17.60;99.90;;;;;;5013141;28;20128;-70
2023/09/21 00:41:18;;;;;;;4.47;2.20;;;17.60;99.90;;;;;;4997759;28;20048;-70
2023/09/21 00:43:44;;;;;;;5.20;2.20;;;17.60;99.90;;;;;;5015070;28;20045;-69
2023/09/21 00:46:10;;;;;;;6.35;2.60;;;17.60;99.90;;;;;;5017120;28;20049;-70
2023/09/21 00:48:42;;;;;;;5.05;2.33;;;17.60;99.90;;;;;;5051254;28;20056;-70
2023/09/21 00:51:10;;;;;;;5.68;2.40;;;17.60;99.90;;;;;;5031288;28;20037;-70
2023/09/21 00:53:36;;;;;;;4.88;1.98;;;17.60;99.90;;;;;;5036763;28;20051;-70
2023/09/21 00:56:08;;;;;;;6.05;2.70;;;17.60;99.90;;;;;;5038095;28;20049;-71
2023/09/21 00:58:36;;;;;;;5.70;2.22;;;17.60;99.90;;;;;;5036802;28;20052;-70
2023/09/21 01:01:02;;;;;;;6.72;2.60;;;17.60;99.90;;;;;;5055553;28;20520;-70
2023/09/21 01:03:28;;;;;;;5.05;2.40;;;17.60;99.90;;;;;;5028812;28;20076;-70
2023/09/21 01:05:54;;;;;;;5.13;2.35;;;17.60;99.90;;;;;;5036367;28;20045;-70
2023/09/21 01:08:28;;;;;;;6.78;2.40;;;17.60;99.90;;;;;;5037265;28;20056;-69
2023/09/21 01:10:55;;;;;;;4.68;2.10;;;17.70;99.90;;;;;;5037385;28;20037;-69
2023/09/21 01:13:21;;;;;;;6.63;2.35;;;17.70;99.90;;;;;;5018098;28;20467;-70
2023/09/21 01:16:04;;;;;;;5.70;2.03;;;17.70;99.90;;;;;;5017205;28;20099;-69
2023/09/21 01:18:31;;;;;;;5.70;2.10;;;17.80;99.90;;;;;;5017136;28;20502;-69
2023/09/21 01:21:02;;;;;;;4.57;2.20;;;17.70;99.90;;;;;;5016847;28;20045;-70
2023/09/21 01:23:49;;;;;;;9.45;2.25;;;17.80;99.90;;;;;;5024879;28;20290;-69
2023/09/21 01:26:16;;;;;;;6.53;2.50;;;17.80;99.90;;;;;;5027465;28;20061;-69
2023/09/21 01:28:46;;;;;;;5.07;2.50;;;17.80;99.90;;;;;;5016363;28;20056;-71
2023/09/21 01:31:13;;;;;;;5.10;2.38;;;17.80;99.90;;;;;;5033496;28;20041;-70
2023/09/21 01:33:42;;;;;;;6.90;2.92;;;17.80;99.90;;;;;;5013257;28;20418;-70
2023/09/21 01:36:08;;;;;;;6.22;2.25;;;17.80;99.90;;;;;;5013851;28;20038;-70
2023/09/21 01:38:35;;;;;;;6.22;2.80;;;17.90;99.90;;;;;;5000336;28;20041;-70
2023/09/21 01:41:00;;;;;;;4.68;2.38;;;17.80;99.90;;;;;;5033087;28;20053;-70
2023/09/21 01:43:26;;;;;;;4.60;2.17;;;17.80;99.90;;;;;;5033229;28;20064;-70
2023/09/21 01:45:52;;;;;;;5.10;2.50;;;17.90;99.90;;;;;;5016948;28;20083;-70
2023/09/21 01:48:18;;;;;;;4.80;2.55;;;17.90;99.90;;;;;;5031944;28;20490;-70
2023/09/21 01:50:50;;;;;;;7.10;2.45;;;17.90;99.90;;;;;;5034703;28;20034;-70
2023/09/21 01:53:21;;;;;;;5.70;2.60;;;17.90;99.90;;;;;;5033366;28;20071;-70
2023/09/21 01:55:49;;;;;;;8.20;3.00;;;18.00;99.90;;;;;;5016047;28;20088;-70
2023/09/21 01:58:16;;;;;;;6.25;2.92;;;18.00;99.90;;;;;;5032541;28;20045;-70
2023/09/21 02:00:46;;;;;;;7.57;2.67;;;18.00;99.90;;;;;;5033351;28;20541;-70
2023/09/21 02:03:14;;;;;;;6.20;2.72;;;18.00;99.90;;;;;;5032332;28;20041;-70
2023/09/21 02:05:41;;;;;;;5.75;2.90;;;18.00;99.90;;;;;;5032898;28;20055;-70
2023/09/21 02:08:12;;;;;;;6.70;2.65;;;18.00;99.90;;;;;;5033031;28;20386;-70
2023/09/21 02:10:40;;;;;;;7.35;3.83;;;17.90;99.90;;;;;;5015602;28;20042;-70
2023/09/21 02:13:07;;;;;;;4.97;2.70;;;17.90;99.90;;;;;;5033004;28;20038;-70
2023/09/21 02:15:34;;;;;;;6.47;2.05;;;17.90;99.90;;;;;;5032607;28;20077;-71
2023/09/21 02:18:02;;;;;;;6.25;2.58;;;17.90;99.90;;;;;;5032222;28;20049;-70
2023/09/21 02:20:29;;;;;;;5.50;2.50;;;17.90;99.90;;;;;;5033858;28;20042;-70
2023/09/21 02:22:57;;;;;;;5.95;2.22;;;17.90;99.90;;;;;;5032222;28;20133;-70
2023/09/21 02:25:26;;;;;;;5.85;2.65;;;17.90;99.90;;;;;;5032165;28;20065;-70
2023/09/21 02:27:52;;;;;;;5.13;2.33;;;17.90;99.90;;;;;;5032290;28;20050;-71
2023/09/21 02:30:21;;;;;;;4.65;2.00;;;17.80;99.90;;;;;;5031613;28;20096;-71
2023/09/21 02:32:48;;;;;;;6.18;2.00;;;17.80;99.90;;;;;;5032618;28;20076;-70
2023/09/21 02:35:22;;;;;;;4.88;2.33;;;17.80;99.90;;;;;;5015961;28;20065;-71
2023/09/21 02:37:48;;;;;;;6.05;2.00;;;17.80;99.90;;;;;;5031753;28;20100;-70
2023/09/21 02:40:14;;;;;;;4.50;2.20;;;17.80;99.90;;;;;;5015957;28;20088;-71
2023/09/21 02:42:42;;;;;;;5.90;2.47;;;17.80;99.90;;;;;;5016024;28;20130;-71
2023/09/21 02:45:10;;;;;;;4.68;2.10;;;17.80;99.90;;;;;;5031438;28;20046;-71
2023/09/21 02:47:37;;;;;;;7.78;2.30;;;17.80;99.90;;;;;;5031937;28;20052;-70
2023/09/21 02:50:21;;;;;;;5.80;2.28;;;17.80;99.90;;;;;;5032492;28;20144;-70
2023/09/21 02:52:56;;;;;;;6.93;2.65;;;17.80;99.90;;;;;;5031565;28;20479;-70
2023/09/21 02:55:23;;;;;;;4.38;1.90;;;17.80;99.90;;;;;;5031583;28;20136;-70
2023/09/21 02:58:10;;;;;;;6.03;2.30;;;17.80;99.90;;;;;;5033101;28;20038;-70
2023/09/21 03:00:46;;;;;;;3.95;1.95;;;17.80;99.90;;;;;;5032085;28;20041;-70
2023/09/21 03:03:14;;;;;;;5.35;2.63;;;17.80;99.90;;;;;;5031987;28;20486;-70
2023/09/21 03:05:41;;;;;;;5.80;2.10;;;17.80;99.90;;;;;;5032040;28;20056;-70
2023/09/21 03:08:17;;;;;;;4.72;2.20;;;17.80;99.90;;;;;;5031247;28;20048;-70
2023/09/21 03:10:44;;;;;;;8.70;2.63;;;17.80;99.90;;;;;;5031790;28;20143;-70
2023/09/21 03:13:17;;;;;;;5.90;2.30;;;17.80;99.90;;;;;;5014535;28;20067;-70
2023/09/21 03:15:44;;;;;;;6.93;2.20;;;17.80;99.90;;;;;;5031587;28;20053;-71
2023/09/21 03:18:10;;;;;;;4.38;1.95;;;17.80;99.90;;;;;;5031336;28;20124;-70
2023/09/21 03:20:36;;;;;;;5.97;2.17;;;17.80;99.90;;;;;;5030794;28;20195;-70
2023/09/21 03:23:05;;;;;;;6.10;1.80;;;17.90;99.90;;;;;;5031782;28;20189;-70
2023/09/21 03:25:35;;;;;;;3.97;1.85;;;17.90;99.90;;;;;;5039270;28;20076;-70
2023/09/21 03:28:08;;;;;;;4.60;2.25;;;17.90;99.90;;;;;;5039604;28;20049;-70
2023/09/21 03:30:34;;;;;;;5.20;2.35;;;17.90;99.90;;;;;;5031522;28;20483;-70
2023/09/21 03:33:00;;;;;;;7.32;2.95;;;17.90;99.90;;;;;;5031340;28;20077;-70
2023/09/21 03:35:27;;;;;;;5.07;2.08;;;17.90;99.90;;;;;;5031948;28;20134;-70
2023/09/21 03:37:54;;;;;;;4.97;2.40;;;17.90;99.90;;;;;;5022293;28;20088;-70
2023/09/21 03:40:19;;;;;;;5.50;2.10;;;17.90;99.90;;;;;;5026281;28;20040;-70
2023/09/21 03:42:45;;;;;;;5.22;2.05;;;17.90;99.90;;;;;;5052279;28;20063;-70
2023/09/21 03:45:15;;;;;;;5.35;2.60;;;17.90;99.90;;;;;;5049788;28;20049;-70
2023/09/21 03:47:42;;;;;;;6.20;2.45;;;17.90;99.90;;;;;;5027765;28;20175;-70
2023/09/21 03:50:14;;;;;;;5.80;2.33;;;17.90;99.90;;;;;;5038847;28;20043;-70
2023/09/21 03:52:42;;;;;;;7.15;3.03;;;17.90;99.90;;;;;;5034236;28;20536;-71
2023/09/21 03:55:10;;;;;;;6.45;2.30;;;17.90;99.90;;;;;;5050197;28;20086;-70
2023/09/21 03:57:37;;;;;;;5.85;2.10;;;17.90;99.90;;;;;;5022938;28;20099;-70
2023/09/21 04:00:16;;;;;;;4.60;2.03;;;17.90;99.90;;;;;;5032475;28;20124;-70
2023/09/21 04:02:45;;;;;;;6.68;2.30;;;17.90;99.90;;;;;;5030157;28;20494;-70
2023/09/21 04:05:18;;;;;;;5.88;2.50;;;17.90;99.90;;;;;;5030538;28;20096;-70
2023/09/21 04:07:45;;;;;;;4.27;2.27;;;17.90;99.90;;;;;;5020251;28;20046;-70
2023/09/21 04:10:11;;;;;;;6.22;2.33;;;17.90;99.90;;;;;;4993738;28;20048;-71
2023/09/21 04:12:39;;;;;;;4.95;2.40;;;17.90;99.90;;;;;;5011049;28;20050;-70
2023/09/21 04:15:06;;;;;;;6.18;2.88;;;17.90;99.90;;;;;;5017481;28;20117;-71
2023/09/21 04:17:32;;;;;;;5.93;2.22;;;17.90;99.90;;;;;;5029181;28;20120;-71
2023/09/21 04:19:58;;;;;;;7.75;2.72;;;17.90;99.90;;;;;;5030219;28;20121;-71
2023/09/21 04:22:23;;;;;;;7.13;2.83;;;17.90;99.90;;;;;;5031788;28;20069;-71
2023/09/21 04:24:49;;;;;;;7.43;2.75;;;17.90;99.90;;;;;;5032050;28;20184;-70
2023/09/21 04:27:15;;;;;;;4.82;2.10;;;17.80;99.90;;;;;;5051595;28;20049;-71
2023/09/21 04:29:40;;;;;;;5.50;2.08;;;17.80;99.90;;;;;;5016581;28;20037;-71
2023/09/21 04:32:07;;;;;;;5.22;2.17;;;17.80;99.90;;;;;;5033946;28;20044;-70
2023/09/21 04:34:33;;;;;;;4.15;1.90;;;17.80;99.90;;;;;;5033696;28;20114;-71
2023/09/21 04:36:59;;;;;;;4.75;2.03;;;17.80;99.90;;;;;;5016674;28;20040;-70
2023/09/21 04:39:24;;;;;;;4.43;2.08;;;17.80;99.90;;;;;;5033737;28;20075;-70
2023/09/21 04:41:50;;;;;;;5.43;2.30;;;17.80;99.90;;;;;;5033770;28;20048;-70
2023/09/21 04:44:16;;;;;;;7.25;2.20;;;17.70;99.90;;;;;;5033167;28;20044;-70
2023/09/21 04:46:42;;;;;;;5.72;2.40;;;17.70;99.90;;;;;;5016342;28;20045;-70
2023/09/21 04:49:08;;;;;;;6.97;2.50;;;17.60;99.90;;;;;;5033045;28;20041;-70
2023/09/21 04:51:34;;;;;;;6.90;2.42;;;17.60;99.90;;;;;;5032903;28;20041;-71
2023/09/21 04:54:00;;;;;;;6.07;2.50;;;17.60;99.90;;;;;;5051774;28;20150;-71
2023/09/21 04:56:26;;;;;;;6.40;2.75;;;17.60;99.90;;;;;;5033099;28;20489;-71
2023/09/21 04:58:55;;;;;;;5.28;1.88;;;17.60;99.90;;;;;;5016423;28;20477;-70
2023/09/21 05:01:24;;;;;;;4.63;2.50;;;17.60;99.90;;;;;;5017128;28;20041;-71
2023/09/21 05:03:50;;;;;;;5.32;2.30;;;17.50;99.90;;;;;;5033598;28;20078;-71
2023/09/21 05:06:18;;;;;;;5.60;2.00;;;17.50;99.90;;;;;;5032175;28;20045;-71
2023/09/21 05:08:44;;;;;;;6.63;2.28;;;17.50;99.90;;;;;;5033275;28;20047;-71
2023/09/21 05:11:10;;;;;;;6.28;1.98;;;17.50;99.90;;;;;;5033410;28;20045;-71
2023/09/21 05:13:36;;;;;;;7.13;2.63;;;17.50;99.90;;;;;;5050063;28;20037;-71
2023/09/21 05:16:03;;;;;;;4.45;2.25;;;17.40;99.90;;;;;;5033742;28;20124;-71
2023/09/21 05:18:30;;;;;;;7.35;2.63;;;17.40;99.90;;;;;;5016831;28;20048;-71
2023/09/21 05:20:56;;;;;;;5.25;2.33;;;17.40;99.90;;;;;;5050361;28;20047;-71
2023/09/21 05:23:21;;;;;;;7.05;2.45;;;17.40;99.90;;;;;;5033240;28;20041;-70
2023/09/21 05:25:47;;;;;;;6.80;2.53;;;17.40;99.90;;;;;;5028355;28;20045;-71
2023/09/21 05:28:14;;;;;;;5.25;2.17;;;17.40;99.90;;;;;;5030037;28;20041;-71
2023/09/21 05:30:40;;;;;;;5.72;2.70;;;17.40;99.90;;;;;;5032886;28;20041;-70
2023/09/21 05:33:07;;;;;;;5.72;2.38;;;17.40;99.90;;;;;;5016556;28;20650;-70
2023/09/21 05:35:33;;;;;;;10.88;2.72;;;17.40;99.90;;;;;;5032762;28;20098;-70
2023/09/21 05:37:59;;;;;;;6.20;2.38;;;17.40;99.90;;;;;;5033569;28;20049;-71
2023/09/21 05:40:24;;;;;;;6.95;2.72;;;17.40;99.90;;;;;;5032798;28;20048;-71
2023/09/21 05:42:50;;;;;;;5.88;2.60;;;17.40;99.90;;;;;;5033075;28;20045;-71
2023/09/21 05:45:16;;;;;;;6.57;2.30;;;17.40;99.90;;;;;;5016206;28;20080;-70
2023/09/21 05:47:42;;;;;;;4.85;2.30;;;17.40;99.90;;;;;;5033920;28;20413;-71
2023/09/21 05:50:08;;;;;;;8.63;2.42;;;17.40;99.90;;;;;;5033314;28;20037;-71
2023/09/21 05:52:35;;;;;;;5.97;2.28;;;17.40;99.90;;;;;;5016292;28;20471;-71
2023/09/21 05:55:01;;;;;;;5.65;2.42;;;17.40;99.90;;;;;;5016422;28;20052;-71
2023/09/21 05:57:27;;;;;;;6.43;2.33;;;17.40;99.90;;;;;;5033471;28;20041;-71
2023/09/21 05:59:54;;;;;;;5.22;2.50;;;17.50;99.90;;;;;;5034583;28;20475;-71
2023/09/21 06:02:20;;;;;;;6.53;2.47;;;17.40;99.90;;;;;;5033351;28;20471;-71
2023/09/21 06:04:46;;;;;;;5.97;2.58;;;17.30;99.90;;;;;;5032768;28;20510;-72
2023/09/21 06:07:12;;;;;;;7.85;2.63;;;17.30;99.90;;;;;;5032814;28;20045;-72
2023/09/21 06:09:39;;;;;;;8.25;2.88;;;17.20;99.90;;;;;;5033487;28;20034;-71
2023/09/21 06:12:10;;;;;;;4.90;2.28;;;17.20;99.90;;;;;;5028798;28;20414;-71
2023/09/21 06:14:36;;;;;;;4.75;2.17;;;17.20;99.90;;;;;;5030104;28;20499;-71
2023/09/21 06:17:05;;;;;;;5.22;2.40;;;17.10;99.90;;;;;;5013317;28;20103;-70
2023/09/21 06:19:32;;;;;;;7.63;2.75;;;17.00;99.90;;;;;;5030917;28;20049;-71
2023/09/21 06:21:58;;;;;;;6.78;2.80;;;17.00;99.90;;;;;;5031126;28;20037;-71
2023/09/21 06:24:24;;;;;;;4.85;2.03;;;16.90;99.90;;;;;;5022001;28;20053;-70
2023/09/21 06:26:53;;;;;;;6.07;2.70;;;16.90;99.90;;;;;;5024735;28;20081;-71
2023/09/21 06:29:22;;;;;;;5.72;2.90;;;16.90;99.90;;;;;;5014142;28;20059;-71
2023/09/21 06:31:55;;;;;;;5.95;2.22;;;16.90;99.90;;;;;;5002649;28;20056;-71
2023/09/21 06:34:24;;;;;;;7.13;2.53;;;16.80;99.90;;;;;;4997021;28;20050;-70
2023/09/21 06:36:51;;;;;;;6.85;2.83;;;16.90;99.90;;;;;;5030744;28;20280;-70
2023/09/21 06:39:17;;;;;;;5.53;2.42;;;16.80;99.90;;;;;;5013865;28;20049;-69
2023/09/21 06:41:44;;;;;;;5.47;2.50;;;16.80;99.90;;;;;;5013099;28;20786;-69
2023/09/21 06:44:10;;;;;;;6.60;2.50;;;16.80;99.90;;;;;;5012753;28;20498;-70
2023/09/21 06:46:36;;;;;;;6.85;2.35;;;16.80;99.90;;;;;;5013115;28;20106;-69
2023/09/21 06:49:03;;;;;;;8.93;2.83;;;16.70;99.90;;;;;;5013758;28;20383;-69
2023/09/21 06:51:29;;;;;;;6.32;2.70;;;16.80;99.90;;;;;;5012903;28;20440;-70
2023/09/21 06:53:56;;;;;;;6.07;2.22;;;16.70;99.90;;;;;;5013837;28;20128;-69
2023/09/21 06:56:23;;;;;;;5.78;2.28;;;16.80;99.90;;;;;;4998127;28;20056;-70
2023/09/21 06:58:49;;;;;;;6.45;3.10;;;16.80;99.90;;;;;;4995824;28;20091;-69
2023/09/21 07:01:15;;;;;;;6.30;2.65;;;16.80;99.90;;;;;;5023346;28;20075;-69
2023/09/21 07:03:41;;;;;;;5.95;2.85;;;16.80;99.90;;;;;;5025669;28;20045;-69
2023/09/21 07:06:07;;;;;;;5.13;2.55;;;16.90;99.90;;;;;;5022670;28;20072;-69
2023/09/21 07:08:33;;;;;;;7.00;2.72;;;16.80;99.90;;;;;;5032540;28;20048;-69
2023/09/21 07:10:59;;;;;;;5.70;2.30;;;16.90;99.90;;;;;;5032496;28;20041;-69
2023/09/21 07:13:24;;;;;;;7.25;2.55;;;16.90;99.90;;;;;;5026914;28;20056;-68
2023/09/21 07:15:52;;;;;;;7.55;2.70;;;16.90;99.90;;;;;;5015743;28;20051;-69
2023/09/21 07:18:18;;;;;;;5.30;2.42;;;16.80;99.90;;;;;;5027144;28;20355;-69
2023/09/21 07:20:44;;;;;;;7.10;2.80;;;16.90;99.90;;;;;;5019129;28;20049;-69
2023/09/21 07:23:10;;;;;;;6.95;2.65;;;16.90;99.90;;;;;;5013616;28;20049;-69
2023/09/21 07:25:36;;;;;;;8.15;3.95;;;16.80;99.90;;;;;;5023406;28;20052;-69
2023/09/21 07:28:01;;;;;;;4.40;1.98;;;16.80;99.90;;;;;;5025090;28;20049;-68
2023/09/21 07:30:28;;;;;;;4.72;1.85;;;16.70;99.90;;;;;;5019463;28;20600;-68
2023/09/21 07:32:55;;;;;;;4.53;1.60;;;16.40;99.90;;;;;;5022289;28;20037;-69
2023/09/21 07:35:24;;;;;;;3.92;1.45;;;16.10;99.90;;;;;;5021187;28;20088;-69
2023/09/21 07:37:50;;;;;;;4.78;1.42;;;15.80;99.90;;;;;;4999317;28;20049;-70
2023/09/21 07:40:17;;;;;;;3.25;1.30;;;15.50;99.90;;;;;;5029505;28;20064;-70
2023/09/21 07:42:44;;;;;;;3.10;1.13;;;15.30;99.90;;;;;;5024279;28;20080;-71
2023/09/21 07:45:10;;;;;;;3.17;1.13;;;15.20;99.90;;;;;;5030215;28;20049;-72
2023/09/21 07:47:37;;;;;;;3.38;1.10;;;15.10;99.90;;;;;;5011596;28;20041;-71
2023/09/21 07:50:04;;;;;;;3.35;1.27;;;15.00;99.90;;;;;;5012929;28;20053;-72
2023/09/21 07:52:32;;;;;;;4.00;1.30;;;15.00;99.90;;;;;;5008745;28;20142;-73
2023/09/21 07:55:02;;;;;;;3.15;1.02;;;14.90;99.90;;;;;;5010718;28;20048;-72
2023/09/21 07:57:34;;;;;;;3.85;1.23;;;14.90;99.90;;;;;;5016999;28;20038;-72
2023/09/21 08:00:01;;;;;;;3.33;1.10;;;15.00;99.90;;;;;;5039707;28;20045;-71
2023/09/21 08:02:27;;;;;;;2.22;0.80;;;14.90;99.90;;;;;;4995548;28;20044;-71
2023/09/21 08:04:54;;;;;;;2.88;1.10;;;14.90;99.90;;;;;;5019789;28;20064;-70
2023/09/21 08:07:25;;;;;;;4.35;1.23;;;15.00;99.90;;;;;;5014425;28;20052;-70
2023/09/21 08:09:55;;;;;;;2.55;1.00;;;15.10;99.90;;;;;;5016452;28;20045;-69
2023/09/21 08:12:24;;;;;;;5.20;1.27;;;15.00;99.90;;;;;;4988510;28;20029;-70
2023/09/21 08:14:50;;;;;;;3.63;1.10;;;14.90;99.90;;;;;;5012378;28;20495;-71
2023/09/21 08:17:17;;;;;;;3.45;1.23;;;15.00;99.90;;;;;;5026239;28;20041;-71
2023/09/21 08:19:43;;;;;;;4.40;1.15;;;15.10;99.90;;;;;;4994230;28;20087;-72
2023/09/21 08:22:09;;;;;;;3.03;1.45;;;15.10;99.90;;;;;;5013859;28;20092;-71
2023/09/21 08:24:36;;;;;;;6.78;1.52;;;15.10;99.90;;;;;;5028940;28;20556;-71
2023/09/21 08:27:03;;;;;;;3.22;1.20;;;15.20;99.90;;;;;;5029977;28;20406;-71
2023/09/21 08:29:29;;;;;;;3.95;1.80;;;15.10;99.90;;;;;;5030796;28;20052;-71
2023/09/21 08:31:55;;;;;;;5.30;2.67;;;15.20;99.90;;;;;;5031086;28;20083;-72
2023/09/21 08:34:21;;;;;;;4.90;1.98;;;15.20;99.90;;;;;;5019757;28;20114;-73
2023/09/21 08:36:47;;;;;;;3.58;1.35;;;15.20;99.90;;;;;;5014270;28;20051;-73
2023/09/21 08:39:13;;;;;;;4.97;1.40;;;15.20;99.90;;;;;;5031845;28;20049;-73
2023/09/21 08:41:44;;;;;;;3.67;1.20;;;15.20;99.90;;;;;;5031440;28;20059;-73
2023/09/21 08:44:11;;;;;;;3.80;1.38;;;15.20;99.90;;;;;;5030900;28;20052;-73
2023/09/21 08:46:38;;;;;;;3.10;1.13;;;15.30;99.90;;;;;;5014583;28;20048;-72
2023/09/21 08:49:06;;;;;;;5.35;1.80;;;15.30;99.90;;;;;;5031730;28;20041;-72
2023/09/21 08:51:37;;;;;;;5.38;1.40;;;15.20;99.90;;;;;;5030635;28;20068;-72
2023/09/21 08:54:06;;;;;;;5.57;1.33;;;15.20;99.90;;;;;;5031414;28;20505;-72
2023/09/21 08:56:33;;;;;;;3.75;1.10;;;15.20;99.90;;;;;;5026843;28;20513;-73
2023/09/21 08:59:06;;;;;;;5.80;1.60;;;15.20;99.90;;;;;;5031206;28;20098;-72
2023/09/21 09:01:32;;;;;;;3.88;1.20;;;15.20;99.90;;;;;;5030149;28;20056;-72
2023/09/21 09:03:58;;;;;;;3.42;1.48;;;15.40;99.90;;;;;;5031437;28;20041;-72
2023/09/21 09:06:27;;;;;;;2.20;0.95;;;15.30;99.90;;;;;;5035230;28;20044;-72
2023/09/21 09:08:54;;;;;;;2.97;1.20;;;15.40;99.90;;;;;;5053166;28;20076;-73
2023/09/21 09:11:40;;;;;;;3.10;1.27;;;15.40;99.90;;;;;;5033824;28;20052;-73
2023/09/21 09:14:22;;;;;;;3.22;1.38;;;15.40;99.90;;;;;;5035177;28;20037;-73
2023/09/21 09:16:49;;;;;;;2.97;1.00;;;15.50;99.90;;;;;;5034925;28;20413;-73
2023/09/21 09:19:16;;;;;;;2.33;0.95;;;15.50;99.90;;;;;;5034023;28;20122;-73
2023/09/21 09:21:44;;;;;;;1.95;0.88;;;15.50;99.90;;;;;;5051417;28;20568;-73
2023/09/21 09:24:12;;;;;;;4.60;1.25;;;15.50;99.90;;;;;;5034916;28;20502;-72
2023/09/21 09:26:41;;;;;;;3.33;1.17;;;15.50;99.90;;;;;;5049853;28;20063;-72
2023/09/21 09:29:14;;;;;;;2.95;1.00;;;15.50;99.90;;;;;;5039326;28;20041;-67
2023/09/21 09:31:41;;;;;;;3.65;1.27;;;15.60;99.90;;;;;;5034063;28;20041;-67
2023/09/21 09:34:09;;;;;;;5.13;1.30;;;15.60;99.90;;;;;;5016517;28;20040;-67
2023/09/21 09:36:36;;;;;;;3.28;1.27;;;15.70;99.90;;;;;;5028318;28;20055;-66
2023/09/21 09:39:08;;;;;;;2.38;0.75;;;15.60;99.90;;;;;;5033564;28;20615;-67
2023/09/21 09:41:34;;;;;;;3.88;1.40;;;15.70;99.90;;;;;;5017390;28;20052;-67
2023/09/21 09:44:06;;;;;;;4.45;1.17;;;15.70;99.90;;;;;;5034244;28;20060;-67
2023/09/21 09:46:34;;;;;;;3.63;1.05;;;15.80;99.90;;;;;;5023303;28;20072;-67
2023/09/21 09:49:02;;;;;;;3.13;1.15;;;15.70;99.90;;;;;;5020988;28;20091;-67
2023/09/21 09:51:47;;;;;;;4.65;1.25;;;15.80;99.90;;;;;;5015757;28;20037;-67
2023/09/21 09:54:13;;;;;;;3.22;1.20;;;15.80;99.90;;;;;;5033019;28;20033;-66
2023/09/21 09:56:43;;;;;;;2.72;1.17;;;15.80;99.90;;;;;;5033941;28;20050;-66
2023/09/21 09:59:11;;;;;;;4.75;1.40;;;15.70;99.90;;;;;;5033127;28;20486;-66
2023/09/21 10:01:39;;;;;;;2.80;1.00;;;15.80;99.90;;;;;;5035036;28;20043;-66
2023/09/21 10:04:07;;;;;;;3.33;1.33;;;15.80;99.90;;;;;;5036616;28;20040;-67
2023/09/21 10:06:37;;;;;;;2.20;1.15;;;15.90;99.90;;;;;;5035976;28;20087;-66
2023/09/21 10:09:11;;;;;;;2.55;0.95;;;16.00;99.90;;;;;;5034672;28;20033;-66
2023/09/21 10:11:44;;;;;;;2.67;0.88;;;16.00;99.90;;;;;;5036271;28;20525;-66
2023/09/21 10:14:13;;;;;;;4.40;1.23;;;16.00;99.90;;;;;;5035682;28;20070;-67
2023/09/21 10:16:48;;;;;;;3.22;1.30;;;16.10;99.90;;;;;;5035081;28;20048;-67
2023/09/21 10:19:24;;;;;;;6.97;1.48;;;16.10;99.90;;;;;;5036263;28;20052;-67
2023/09/21 10:21:55;;;;;;;2.40;0.80;;;16.20;99.90;;;;;;5035289;28;20048;-67
2023/09/21 10:24:24;;;;;;;3.15;0.80;;;16.20;99.90;;;;;;5019584;28;20044;-67
2023/09/21 10:26:51;;;;;;;3.28;1.13;;;16.20;99.90;;;;;;5018602;28;20049;-67
2023/09/21 10:29:26;;;;;;;2.75;0.98;;;16.10;99.90;;;;;;5035206;28;20045;-65
2023/09/21 10:31:54;;;;;;;5.47;1.15;;;16.20;99.90;;;;;;5054094;28;20086;-65
2023/09/21 10:34:22;;;;;;;3.28;0.73;;;16.10;99.90;;;;;;5031681;28;20049;-66
2023/09/21 10:36:56;;;;;;;2.35;0.80;;;16.20;99.90;;;;;;5027682;28;20068;-68
2023/09/21 10:39:26;;;;;;;;;;;16.20;99.90;;;;;;5014676;28;20053;-68
2023/09/21 10:42:17;;;;;;;3.65;1.10;;;16.20;99.90;;;;;;5032756;28;19936;-68
2023/09/21 10:45:04;;;;;;;3.67;1.15;;;16.20;99.90;;;;;;5022880;28;20657;-68
2023/09/21 10:47:36;;;;;;;3.28;1.42;;;16.10;99.90;;;;;;5032356;28;20045;-68
2023/09/21 10:50:04;;;;;;;3.60;1.45;;;16.10;99.90;;;;;;5016414;28;20072;-67
2023/09/21 10:52:31;;;;;;;3.65;1.38;;;16.20;99.90;;;;;;5016051;28;20052;-68
2023/09/21 10:54:57;;;;;;;3.05;1.65;;;16.30;99.90;;;;;;5033749;28;20048;-68
2023/09/21 10:57:27;;;;;;;3.42;1.15;;;16.20;99.90;;;;;;5026163;28;20049;-68
2023/09/21 10:59:53;;;;;;;2.90;1.08;;;16.20;99.90;;;;;;5013019;28;20486;-67
2023/09/21 11:02:23;;;;;;;3.40;1.17;;;16.10;99.90;;;;;;5009881;28;20151;-68
2023/09/21 11:04:52;;;;;;;2.67;1.20;;;16.20;99.90;;;;;;5031844;28;20052;-68
2023/09/21 11:07:21;;;;;;;3.33;1.08;;;16.10;99.90;;;;;;5032317;28;20059;-67
2023/09/21 11:09:48;;;;;;;3.75;1.20;;;16.10;99.90;;;;;;5031971;28;20045;-68
2023/09/21 11:12:14;;;;;;;4.22;1.20;;;16.10;99.90;;;;;;5031596;28;20800;-68
2023/09/21 11:14:44;;;;;;;3.85;1.23;;;16.10;99.90;;;;;;5032846;28;20532;-68
2023/09/21 11:17:11;;;;;;;2.90;1.10;;;16.00;99.90;;;;;;5032631;28;20095;-68
2023/09/21 11:19:39;;;;;;;4.20;1.00;;;16.00;99.90;;;;;;5041016;28;20045;-68
2023/09/21 11:22:06;;;;;;;5.22;1.40;;;16.10;99.90;;;;;;5032374;28;20056;-68
2023/09/21 11:24:35;;;;;;;2.47;1.25;;;16.10;99.90;;;;;;5015359;28;20490;-68
2023/09/21 11:27:12;;;;;;;2.53;1.38;;;16.10;99.90;;;;;;5032538;28;20053;-67
2023/09/21 11:29:43;;;;;;;2.85;1.10;;;16.00;99.90;;;;;;5031483;28;20490;-67
2023/09/21 11:32:17;;;;;;;4.60;1.52;;;16.00;99.90;;;;;;5007556;28;20041;-68
2023/09/21 11:34:44;;;;;;;4.63;1.50;;;16.10;99.90;;;;;;5012518;28;20123;-68
2023/09/21 11:37:11;;;;;;;3.65;1.40;;;16.00;99.90;;;;;;5032213;28;20044;-68
2023/09/21 11:39:44;;;;;;;4.35;1.98;;;16.10;99.90;;;;;;5031564;28;20120;-68
2023/09/21 11:42:11;;;;;;;4.97;2.92;;;16.10;99.90;;;;;;5031045;28;20072;-68
2023/09/21 11:44:37;;;;;;;4.70;3.00;;;16.00;99.90;;;;;;5031493;28;20088;-68
2023/09/21 11:47:07;;;;;;;5.43;3.35;;;16.00;99.90;;;;;;5031266;28;20049;-67
2023/09/21 11:49:43;;;;;;;5.00;2.00;;;15.90;99.90;;;;;;5015043;28;20063;-66
2023/09/21 11:52:10;;;;;;;3.67;1.70;;;16.00;99.90;;;;;;5015653;28;20083;-66
2023/09/21 11:54:38;;;;;;;3.83;1.88;;;15.90;99.90;;;;;;5030710;28;20457;-66
2023/09/21 11:57:06;;;;;;;6.43;1.52;;;15.90;99.90;;;;;;5031235;28;20168;-67
2023/09/21 11:59:34;;;;;;;3.70;1.50;;;15.90;99.90;;;;;;5031429;28;20060;-66
2023/09/21 12:02:08;;;;;;;3.72;1.80;;;15.80;99.90;;;;;;5015215;28;20045;-66
2023/09/21 12:04:34;;;;;;;;;;;15.90;99.90;;;;;;5032803;28;20052;-66
2023/09/21 12:07:00;;;;;;;;;;;15.90;99.90;;;;;;5031674;28;19924;-66
2023/09/21 12:09:26;;;;;;;;;;;16.00;99.90;;;;;;5032690;28;20364;-67
2023/09/21 12:11:54;;;;;;;;;;;15.90;99.90;;;;;;5031298;28;19928;-67
2023/09/21 12:14:21;;;;;;;;;;;15.80;99.90;;;;;;5029681;28;20003;-67
2023/09/21 12:16:50;;;;;;;;;;;15.90;99.90;;;;;;5016567;28;19917;-67
2023/09/21 12:19:19;;;;;;;;;;;15.90;99.90;;;;;;5018882;28;19967;-66
2023/09/21 12:21:46;;;;;;;;;;;15.80;99.90;;;;;;5049314;28;19921;-66
2023/09/21 12:24:12;;;;;;;;;;;15.90;99.90;;;;;;5031935;28;19975;-66
2023/09/21 12:26:37;;;;;;;;;;;15.90;99.90;;;;;;5032194;28;19968;-67
2023/09/21 12:29:03;;;;;;;;;;;15.90;99.90;;;;;;5032211;28;19991;-66
2023/09/21 12:31:29;;;;;;;;;;;15.80;99.90;;;;;;5031081;28;20433;-66
2023/09/21 12:33:55;;;;;;;;;;;16.00;99.90;;;;;;5032079;28;19921;-67
2023/09/21 12:36:23;;;;;;;;;;;16.00;99.90;;;;;;5029627;28;19931;-67
2023/09/21 12:38:50;;;;;;;;;;;16.00;99.90;;;;;;5031835;28;19971;-67
2023/09/21 12:41:16;;;;;;;;;;;16.00;99.90;;;;;;5034967;28;19943;-67
2023/09/21 12:43:42;;;;;;;;;;;15.90;99.90;;;;;;5034987;28;19920;-67
2023/09/21 12:49:30;;;;;;;;;;;15.90;99.90;;;;;;5048436;28;20281;-68
2023/09/21 12:51:56;;;;;;;;;;;15.80;99.90;;;;;;5019776;28;19921;-67
2023/09/21 12:54:21;;;;;;;;;;;15.90;99.90;;;;;;5019392;28;20392;-67
2023/09/21 12:56:47;;;;;;;;;;;15.90;99.90;;;;;;5018986;28;19927;-67
2023/09/21 12:59:14;;;;;;;;;;;15.90;99.90;;;;;;5035323;28;20337;-71
2023/09/21 13:01:40;;;;;;;;;;;15.80;99.90;;;;;;5035832;28;19920;-71